createdAt,value
2024-02-22T00:00:31.980Z,4.61
2024-02-22T00:03:22.493Z,4.63
2024-02-22T00:05:51.889Z,4.64
2024-02-22T00:08:23.310Z,4.65
2024-02-22T00:10:52.926Z,4.66
2024-02-22T00:13:23.777Z,4.66
2024-02-22T00:15:53.181Z,4.65
2024-02-22T00:18:24.492Z,4.67
2024-02-22T00:20:54.125Z,4.72
2024-02-22T00:23:24.789Z,4.76
2024-02-22T00:25:54.193Z,4.79
2024-02-22T00:28:25.300Z,4.83
2024-02-22T00:30:54.716Z,4.86
2024-02-22T00:33:25.233Z,4.90
2024-02-22T00:35:54.533Z,4.93
2024-02-22T00:38:26.570Z,4.96
2024-02-22T00:40:56.044Z,4.96
2024-02-22T00:43:27.108Z,5.00
2024-02-22T00:45:56.856Z,5.03
2024-02-22T00:48:27.796Z,5.06
2024-02-22T00:50:57.309Z,5.08
2024-02-22T00:53:28.165Z,5.10
2024-02-22T00:55:57.574Z,5.12
2024-02-22T00:58:29.214Z,5.13
2024-02-22T01:00:58.715Z,5.13
2024-02-22T01:03:32.796Z,5.14
2024-02-22T01:06:05.598Z,5.16
2024-02-22T01:08:35.301Z,5.17
2024-02-22T01:11:06.098Z,5.17
2024-02-22T01:13:35.463Z,5.16
2024-02-22T01:16:07.267Z,5.15
2024-02-22T01:18:36.715Z,5.13
2024-02-22T01:21:07.332Z,5.10
2024-02-22T01:23:37.120Z,5.09
2024-02-22T01:26:07.742Z,5.07
2024-02-22T01:28:37.397Z,5.05
2024-02-22T01:31:08.114Z,5.04
2024-02-22T01:33:37.679Z,5.04
2024-02-22T01:36:08.979Z,5.02
2024-02-22T01:38:38.533Z,5.02
2024-02-22T01:41:09.349Z,5.02
2024-02-22T01:43:38.854Z,5.03
2024-02-22T01:46:09.541Z,5.02
2024-02-22T01:48:39.037Z,5.04
2024-02-22T01:51:09.778Z,5.06
2024-02-22T01:53:39.289Z,5.07
2024-02-22T01:56:09.910Z,5.06
2024-02-22T01:58:39.602Z,5.08
2024-02-22T02:01:12.372Z,5.10
2024-02-22T02:03:41.754Z,5.11
2024-02-22T02:06:12.581Z,5.14
2024-02-22T02:08:41.946Z,5.17
2024-02-22T02:11:12.566Z,5.19
2024-02-22T02:13:41.992Z,5.22
2024-02-22T02:16:12.505Z,5.26
2024-02-22T02:18:41.984Z,5.30
2024-02-22T02:21:20.829Z,5.34
2024-02-22T02:24:09.901Z,5.40
2024-02-22T02:26:40.808Z,5.45
2024-02-22T02:29:10.318Z,5.50
2024-02-22T02:31:41.015Z,5.56
2024-02-22T02:34:10.409Z,5.61
2024-02-22T02:36:41.113Z,5.68
2024-02-22T02:39:10.402Z,5.75
2024-02-22T02:41:40.933Z,5.80
2024-02-22T02:44:10.314Z,5.84
2024-02-22T02:46:41.000Z,5.87
2024-02-22T02:49:10.532Z,5.90
2024-02-22T02:51:41.518Z,5.94
2024-02-22T02:54:10.907Z,5.97
2024-02-22T02:56:41.540Z,5.99
2024-02-22T02:59:10.961Z,6.00
2024-02-22T03:01:48.494Z,6.03
2024-02-22T03:04:19.389Z,6.06
2024-02-22T03:06:49.223Z,6.09
2024-02-22T03:09:20.348Z,6.12
2024-02-22T03:11:49.907Z,6.16
2024-02-22T03:14:20.965Z,6.21
2024-02-22T03:16:50.416Z,6.25
2024-02-22T03:19:21.013Z,6.26
2024-02-22T03:21:50.309Z,6.29
2024-02-22T03:24:21.719Z,6.30
2024-02-22T03:26:51.060Z,6.33
2024-02-22T03:29:23.164Z,6.34
2024-02-22T03:31:52.572Z,6.35
2024-02-22T03:34:23.933Z,6.37
2024-02-22T03:36:53.385Z,6.38
2024-02-22T03:39:23.899Z,6.40
2024-02-22T03:41:53.924Z,6.44
2024-02-22T03:44:24.553Z,6.49
2024-02-22T03:46:54.105Z,6.53
2024-02-22T03:49:24.727Z,6.57
2024-02-22T03:51:54.091Z,6.65
2024-02-22T03:54:24.722Z,6.71
2024-02-22T03:56:54.531Z,6.76
2024-02-22T03:59:25.272Z,6.81
2024-02-22T04:01:55.425Z,6.84
2024-02-22T04:04:29.298Z,6.86
2024-02-22T04:06:59.702Z,6.88
2024-02-22T04:09:30.553Z,6.91
2024-02-22T04:11:59.954Z,6.92
2024-02-22T04:14:30.686Z,6.92
2024-02-22T04:17:00.728Z,6.92
2024-02-22T04:19:31.389Z,6.93
2024-02-22T04:22:00.950Z,6.92
2024-02-22T04:24:31.671Z,6.92
2024-02-22T04:27:00.979Z,6.91
2024-02-22T04:29:31.573Z,6.91
2024-02-22T04:32:00.950Z,6.90
2024-02-22T04:34:32.618Z,6.90
2024-02-22T04:37:02.378Z,6.88
2024-02-22T04:39:32.915Z,6.86
2024-02-22T04:42:02.427Z,6.85
2024-02-22T04:44:33.043Z,6.84
2024-02-22T04:47:02.517Z,6.83
2024-02-22T04:49:33.234Z,6.85
2024-02-22T04:52:04.734Z,6.85
2024-02-22T04:54:41.338Z,6.85
2024-02-22T04:57:14.590Z,6.85
2024-02-22T04:59:43.885Z,6.86
2024-02-22T05:02:14.458Z,6.86
2024-02-22T05:04:43.966Z,6.86
2024-02-22T05:07:14.869Z,6.87
2024-02-22T05:09:44.274Z,6.88
2024-02-22T05:12:14.962Z,6.89
2024-02-22T05:14:47.471Z,6.90
2024-02-22T05:17:18.812Z,6.89
2024-02-22T05:19:51.217Z,6.89
2024-02-22T05:22:21.927Z,6.88
2024-02-22T05:24:51.230Z,6.87
2024-02-22T05:27:22.169Z,6.86
2024-02-22T05:29:51.578Z,6.85
2024-02-22T05:32:22.468Z,6.85
2024-02-22T05:34:52.077Z,6.85
2024-02-22T05:37:22.644Z,6.85
2024-02-22T05:39:51.945Z,6.85
2024-02-22T05:42:22.779Z,6.85
2024-02-22T05:44:52.486Z,6.85
2024-02-22T05:47:23.218Z,6.85
2024-02-22T05:49:52.946Z,6.85
2024-02-22T05:52:23.684Z,6.85
2024-02-22T05:54:52.960Z,6.86
2024-02-22T05:57:23.491Z,6.87
2024-02-22T05:59:52.787Z,6.87
2024-02-22T06:02:23.568Z,6.86
2024-02-22T06:04:53.185Z,6.87
2024-02-22T06:07:24.089Z,6.88
2024-02-22T06:09:53.781Z,6.88
2024-02-22T06:12:24.353Z,6.89
2024-02-22T06:14:53.720Z,6.90
2024-02-22T06:17:24.327Z,6.91
2024-02-22T06:19:53.978Z,6.91
2024-02-22T06:22:24.778Z,6.90
2024-02-22T06:24:54.182Z,6.90
2024-02-22T06:27:24.809Z,6.90
2024-02-22T06:29:54.230Z,6.90
2024-02-22T06:32:28.024Z,6.90
2024-02-22T06:34:57.991Z,6.90
2024-02-22T06:37:28.673Z,6.91
2024-02-22T06:39:58.035Z,6.92
2024-02-22T06:42:28.708Z,6.94
2024-02-22T06:44:58.005Z,6.95
2024-02-22T06:47:28.555Z,6.98
2024-02-22T06:49:58.053Z,7.00
2024-02-22T06:52:28.875Z,7.02
2024-02-22T06:54:58.577Z,7.06
2024-02-22T06:57:29.726Z,7.10
2024-02-22T06:59:59.329Z,7.12
2024-02-22T07:02:30.068Z,7.14
2024-02-22T07:04:59.387Z,7.14
2024-02-22T07:07:29.996Z,7.12
2024-02-22T07:09:59.306Z,7.10
2024-02-22T07:12:29.821Z,7.05
2024-02-22T07:14:59.128Z,7.00
2024-02-22T07:17:30.459Z,6.96
2024-02-22T07:20:00.026Z,6.92
2024-02-22T07:22:30.706Z,6.88
2024-02-22T07:25:00.412Z,6.84
2024-02-22T07:27:31.069Z,6.82
2024-02-22T07:30:00.414Z,6.82
2024-02-22T07:32:31.375Z,6.81
2024-02-22T07:35:01.991Z,6.82
2024-02-22T07:37:33.222Z,6.83
2024-02-22T07:40:02.490Z,6.82
2024-02-22T07:42:34.588Z,6.81
2024-02-22T07:45:05.595Z,6.78
2024-02-22T07:47:36.104Z,6.73
2024-02-22T07:50:05.967Z,6.68
2024-02-22T07:52:37.101Z,6.63
2024-02-22T07:55:07.787Z,6.58
2024-02-22T07:57:38.413Z,6.53
2024-02-22T08:00:10.773Z,6.50
2024-02-22T08:02:43.424Z,6.47
2024-02-22T08:05:13.106Z,6.47
2024-02-22T08:07:45.255Z,6.47
2024-02-22T08:10:15.971Z,6.50
2024-02-22T08:12:46.602Z,6.52
2024-02-22T08:15:16.732Z,6.55
2024-02-22T08:17:47.904Z,6.59
2024-02-22T08:20:17.660Z,6.63
2024-02-22T08:22:48.999Z,6.67
2024-02-22T08:25:18.804Z,6.72
2024-02-22T08:27:59.009Z,6.77
2024-02-22T08:30:37.612Z,6.81
2024-02-22T08:33:07.360Z,6.87
2024-02-22T08:35:38.055Z,6.92
2024-02-22T08:38:07.494Z,6.98
2024-02-22T08:40:47.357Z,7.01
2024-02-22T08:43:18.345Z,7.05
2024-02-22T08:45:50.721Z,7.05
2024-02-22T08:48:21.545Z,7.04
2024-02-22T08:50:50.959Z,7.02
2024-02-22T08:53:21.688Z,6.99
2024-02-22T08:55:51.648Z,6.97
2024-02-22T08:58:22.228Z,7.00
2024-02-22T09:00:51.682Z,7.10
2024-02-22T09:03:22.335Z,7.22
2024-02-22T09:05:52.075Z,7.29
2024-02-22T09:08:23.450Z,7.31
2024-02-22T09:10:56.208Z,7.34
2024-02-22T09:13:27.445Z,7.37
2024-02-22T09:15:57.157Z,7.39
2024-02-22T09:18:27.971Z,7.44
2024-02-22T09:20:57.660Z,7.47
2024-02-22T09:23:28.403Z,7.52
2024-02-22T09:25:57.818Z,7.59
2024-02-22T09:28:28.469Z,7.70
2024-02-22T09:30:59.024Z,7.84
2024-02-22T09:33:29.726Z,7.95
2024-02-22T09:35:59.652Z,8.05
2024-02-22T09:38:35.718Z,8.10
2024-02-22T09:41:07.608Z,8.15
2024-02-22T09:43:37.625Z,8.18
2024-02-22T09:46:08.967Z,8.25
2024-02-22T09:48:38.333Z,8.36
2024-02-22T09:51:09.064Z,8.47
2024-02-22T09:53:38.474Z,8.55
2024-02-22T09:56:11.000Z,8.62
2024-02-22T09:58:40.886Z,8.71
2024-02-22T10:01:11.555Z,8.82
2024-02-22T10:03:42.040Z,8.92
2024-02-22T10:06:19.653Z,9.02
2024-02-22T10:08:50.270Z,9.10
2024-02-22T10:11:21.474Z,9.18
2024-02-22T10:14:03.351Z,9.26
2024-02-22T10:16:34.140Z,9.32
2024-02-22T10:19:03.535Z,9.37
2024-02-22T10:21:34.266Z,9.40
2024-02-22T10:24:04.478Z,9.45
2024-02-22T10:26:35.030Z,9.51
2024-02-22T10:29:11.112Z,9.57
2024-02-22T10:31:41.890Z,9.57
2024-02-22T10:34:11.370Z,9.51
2024-02-22T10:36:42.348Z,9.46
2024-02-22T10:39:12.660Z,9.42
2024-02-22T10:41:43.197Z,9.37
2024-02-22T10:44:12.863Z,9.35
2024-02-22T10:46:43.657Z,9.38
2024-02-22T10:49:13.432Z,9.44
2024-02-22T10:51:44.492Z,9.54
2024-02-22T10:54:13.991Z,9.69
2024-02-22T10:56:44.889Z,9.82
2024-02-22T10:59:15.864Z,9.89
2024-02-22T11:01:47.464Z,9.91
2024-02-22T11:04:17.587Z,9.92
2024-02-22T11:06:49.609Z,9.91
2024-02-22T11:09:19.726Z,9.90
2024-02-22T11:11:53.113Z,9.91
2024-02-22T11:14:29.472Z,9.91
2024-02-22T11:17:01.520Z,9.90
2024-02-22T11:19:31.261Z,9.86
2024-02-22T11:22:01.912Z,9.86
2024-02-22T11:24:31.357Z,9.93
2024-02-22T11:27:02.226Z,10.00
2024-02-22T11:29:34.262Z,10.05
2024-02-22T11:32:06.374Z,10.06
2024-02-22T11:34:38.724Z,10.04
2024-02-22T11:37:18.551Z,9.96
2024-02-22T11:39:59.591Z,9.85
2024-02-22T11:42:31.209Z,9.75
2024-02-22T11:45:10.946Z,9.62
2024-02-22T11:47:41.647Z,9.51
2024-02-22T11:50:11.024Z,9.41
2024-02-22T11:52:43.134Z,9.32
2024-02-22T11:55:12.548Z,9.26
2024-02-22T11:57:43.543Z,9.19
2024-02-22T12:00:13.301Z,9.18
2024-02-22T12:02:44.750Z,9.20
2024-02-22T12:05:14.315Z,9.19
2024-02-22T12:07:45.051Z,9.21
2024-02-22T12:10:14.739Z,9.22
2024-02-22T12:12:45.424Z,9.23
2024-02-22T12:15:21.182Z,9.22
2024-02-22T12:17:54.596Z,9.23
2024-02-22T12:20:24.654Z,9.22
2024-02-22T12:22:56.745Z,9.24
2024-02-22T12:25:26.396Z,9.27
2024-02-22T12:27:58.147Z,9.29
2024-02-22T12:30:27.838Z,9.32
2024-02-22T12:32:57.994Z,9.35
2024-02-22T12:35:27.387Z,9.41
2024-02-22T12:37:58.620Z,9.44
2024-02-22T12:40:27.896Z,9.46
2024-02-22T12:42:58.503Z,9.46
2024-02-22T12:45:27.811Z,9.48
2024-02-22T12:47:58.525Z,9.52
2024-02-22T12:50:28.188Z,9.58
2024-02-22T12:52:58.816Z,9.64
2024-02-22T12:55:28.116Z,9.68
2024-02-22T12:57:59.117Z,9.70
2024-02-22T13:00:28.441Z,9.72
2024-02-22T13:02:59.346Z,9.74
2024-02-22T13:05:32.435Z,9.73
2024-02-22T13:08:08.235Z,9.69
2024-02-22T13:10:41.986Z,9.62
2024-02-22T13:13:11.753Z,9.58
2024-02-22T13:15:47.573Z,9.54
2024-02-22T13:18:16.978Z,9.50
2024-02-22T13:20:47.851Z,9.46
2024-02-22T13:23:17.369Z,9.43
2024-02-22T13:25:48.024Z,9.38
2024-02-22T13:28:18.011Z,9.32
2024-02-22T13:30:48.534Z,9.26
2024-02-22T13:33:18.226Z,9.24
2024-02-22T13:35:48.958Z,9.28
2024-02-22T13:38:18.519Z,9.32
2024-02-22T13:40:49.140Z,9.35
2024-02-22T13:43:18.880Z,9.36
2024-02-22T13:45:49.545Z,9.40
2024-02-22T13:48:19.173Z,9.40
2024-02-22T13:50:50.016Z,9.38
2024-02-22T13:53:19.448Z,9.34
2024-02-22T13:55:50.554Z,9.31
2024-02-22T13:58:19.832Z,9.26
2024-02-22T14:00:50.710Z,9.22
2024-02-22T14:03:20.171Z,9.17
2024-02-22T14:05:53.177Z,9.12
2024-02-22T14:08:23.746Z,9.05
2024-02-22T14:10:54.391Z,9.00
2024-02-22T14:13:25.173Z,8.97
2024-02-22T14:15:55.983Z,8.88
2024-02-22T14:18:25.751Z,8.77
2024-02-22T14:20:56.635Z,8.66
2024-02-22T14:23:26.024Z,8.56
2024-02-22T14:25:56.814Z,8.46
2024-02-22T14:28:26.380Z,8.35
2024-02-22T14:30:57.926Z,8.23
2024-02-22T14:33:27.929Z,8.13
2024-02-22T14:35:59.373Z,8.03
2024-02-22T14:38:29.607Z,7.95
2024-02-22T14:41:00.269Z,7.88
2024-02-22T14:43:29.659Z,7.81
2024-02-22T14:46:01.932Z,7.76
2024-02-22T14:48:33.299Z,7.69
2024-02-22T14:51:04.366Z,7.65
2024-02-22T14:53:37.287Z,7.61
2024-02-22T14:56:09.807Z,7.57
2024-02-22T14:58:41.735Z,7.55
2024-02-22T15:01:13.278Z,7.56
2024-02-22T15:03:42.576Z,7.59
2024-02-22T15:06:17.706Z,7.65
2024-02-22T15:08:49.280Z,7.71
2024-02-22T15:11:18.729Z,7.77
2024-02-22T15:13:52.098Z,7.78
2024-02-22T15:16:22.092Z,7.78
2024-02-22T15:18:52.764Z,7.76
2024-02-22T15:21:22.238Z,7.72
2024-02-22T15:23:53.661Z,7.69
2024-02-22T15:26:23.036Z,7.66
2024-02-22T15:28:53.838Z,7.64
2024-02-22T15:31:23.424Z,7.62
2024-02-22T15:34:01.451Z,7.60
2024-02-22T15:36:40.773Z,7.58
2024-02-22T15:39:10.120Z,7.57
2024-02-22T15:41:42.069Z,7.56
2024-02-22T15:44:12.695Z,7.55
2024-02-22T15:46:47.519Z,7.53
2024-02-22T15:49:17.159Z,7.51
2024-02-22T15:51:48.142Z,7.50
2024-02-22T15:54:17.742Z,7.47
2024-02-22T15:56:48.266Z,7.46
2024-02-22T15:59:17.628Z,7.43
2024-02-22T16:01:59.618Z,7.40
2024-02-22T16:04:30.632Z,7.35
2024-02-22T16:07:00.012Z,7.32
2024-02-22T16:09:31.351Z,7.29
2024-02-22T16:12:00.888Z,7.27
2024-02-22T16:14:31.763Z,7.25
2024-02-22T16:17:01.232Z,7.23
2024-02-22T16:19:32.098Z,7.21
2024-02-22T16:22:01.545Z,7.20
2024-02-22T16:24:35.135Z,7.19
2024-02-22T16:27:05.548Z,7.17
2024-02-22T16:29:37.888Z,7.15
2024-02-22T16:32:07.921Z,7.14
2024-02-22T16:34:40.367Z,7.13
2024-02-22T16:37:14.606Z,7.12
2024-02-22T16:39:45.950Z,7.10
2024-02-22T16:42:15.320Z,7.08
2024-02-22T16:44:45.925Z,7.06
2024-02-22T16:47:19.574Z,7.03
2024-02-22T16:49:50.422Z,7.01
2024-02-22T16:52:22.335Z,6.99
2024-02-22T16:54:54.779Z,6.97
2024-02-22T16:57:24.192Z,6.97
2024-02-22T16:59:55.536Z,6.97
2024-02-22T17:02:26.309Z,6.98
2024-02-22T17:04:59.200Z,6.97
2024-02-22T17:07:28.555Z,6.98
2024-02-22T17:09:59.089Z,6.99
2024-02-22T17:12:28.494Z,7.01
2024-02-22T17:14:59.216Z,7.01
2024-02-22T17:17:36.345Z,7.01
2024-02-22T17:20:07.739Z,7.01
2024-02-22T17:22:37.250Z,7.04
2024-02-22T17:25:11.422Z,7.07
2024-02-22T17:27:40.778Z,7.10
2024-02-22T17:30:13.138Z,7.12
2024-02-22T17:32:42.947Z,7.14
2024-02-22T17:35:16.841Z,7.17
2024-02-22T17:37:46.610Z,7.20
2024-02-22T17:40:17.422Z,7.22
2024-02-22T17:42:46.918Z,7.25
2024-02-22T17:45:17.858Z,7.27
2024-02-22T17:47:47.179Z,7.29
2024-02-22T17:50:17.702Z,7.31
2024-02-22T17:52:47.550Z,7.34
2024-02-22T17:55:18.348Z,7.36
2024-02-22T17:57:47.743Z,7.38
2024-02-22T18:00:25.822Z,7.38
2024-02-22T18:03:03.573Z,7.40
2024-02-22T18:05:36.802Z,7.40
2024-02-22T18:08:09.273Z,7.40
2024-02-22T18:10:40.046Z,7.40
2024-02-22T18:13:09.359Z,7.40
2024-02-22T18:15:40.378Z,7.40
2024-02-22T18:18:09.920Z,7.41
2024-02-22T18:20:42.434Z,7.41
2024-02-22T18:23:11.808Z,7.44
2024-02-22T18:25:42.530Z,7.47
2024-02-22T18:28:12.309Z,7.50
2024-02-22T18:30:44.885Z,7.54
2024-02-22T18:33:14.229Z,7.57
2024-02-22T18:35:44.865Z,7.60
2024-02-22T18:38:15.243Z,7.62
2024-02-22T18:40:45.868Z,7.64
2024-02-22T18:43:15.147Z,7.65
2024-02-22T18:45:45.770Z,7.68
2024-02-22T18:48:15.236Z,7.70
2024-02-22T18:50:45.929Z,7.71
2024-02-22T18:53:15.417Z,7.73
2024-02-22T18:55:45.969Z,7.73
2024-02-22T18:58:15.340Z,7.72
2024-02-22T19:00:46.316Z,7.70
2024-02-22T19:03:17.527Z,7.69
2024-02-22T19:05:49.433Z,7.68
2024-02-22T19:08:19.653Z,7.67
2024-02-22T19:10:50.354Z,7.65
2024-02-22T19:13:19.844Z,7.64
2024-02-22T19:15:50.369Z,7.63
2024-02-22T19:18:20.509Z,7.63
2024-02-22T19:20:53.485Z,7.63
2024-02-22T19:23:24.027Z,7.62
2024-02-22T19:25:56.116Z,7.63
2024-02-22T19:28:25.579Z,7.63
2024-02-22T19:30:56.604Z,7.63
2024-02-22T19:33:26.628Z,7.64
2024-02-22T19:35:57.403Z,7.65
2024-02-22T19:38:26.749Z,7.67
2024-02-22T19:41:05.315Z,7.70
2024-02-22T19:43:36.408Z,7.71
2024-02-22T19:46:05.748Z,7.73
2024-02-22T19:48:37.598Z,7.76
2024-02-22T19:51:07.296Z,7.78
2024-02-22T19:53:37.829Z,7.79
2024-02-22T19:56:07.712Z,7.80
2024-02-22T19:58:38.474Z,7.82
2024-02-22T20:01:08.033Z,7.84
2024-02-22T20:03:38.839Z,7.87
2024-02-22T20:06:08.764Z,7.89
2024-02-22T20:08:39.561Z,7.91
2024-02-22T20:11:11.909Z,7.93
2024-02-22T20:13:42.597Z,7.95
2024-02-22T20:16:11.872Z,7.96
2024-02-22T20:18:42.435Z,7.99
2024-02-22T20:21:12.173Z,8.01
2024-02-22T20:23:42.751Z,8.04
2024-02-22T20:26:12.105Z,8.06
2024-02-22T20:28:42.819Z,8.08
2024-02-22T20:31:12.789Z,8.11
2024-02-22T20:33:43.760Z,8.14
2024-02-22T20:36:13.351Z,8.16
2024-02-22T20:38:44.757Z,8.17
2024-02-22T20:41:17.879Z,8.19
2024-02-22T20:43:48.949Z,8.21
2024-02-22T20:46:18.519Z,8.21
2024-02-22T20:48:53.017Z,8.22
2024-02-22T20:51:29.799Z,8.22
2024-02-22T20:53:59.852Z,8.24
2024-02-22T20:56:33.277Z,8.25
2024-02-22T20:59:07.649Z,8.26
2024-02-22T21:01:37.274Z,8.29
2024-02-22T21:04:08.317Z,8.32
2024-02-22T21:06:37.893Z,8.34
2024-02-22T21:09:12.142Z,8.37
2024-02-22T21:11:44.048Z,8.39
2024-02-22T21:14:13.883Z,8.42
2024-02-22T21:16:46.735Z,8.43
2024-02-22T21:19:16.157Z,8.44
2024-02-22T21:21:46.824Z,8.44
2024-02-22T21:24:16.842Z,8.44
2024-02-22T21:26:47.426Z,8.44
2024-02-22T21:29:18.447Z,8.43
2024-02-22T21:31:50.845Z,8.43
2024-02-22T21:34:21.864Z,8.42
2024-02-22T21:36:52.414Z,8.41
2024-02-22T21:39:22.018Z,8.42
2024-02-22T21:41:52.580Z,8.41
2024-02-22T21:44:22.104Z,8.41
2024-02-22T21:46:54.137Z,8.41
2024-02-22T21:49:23.586Z,8.41
2024-02-22T21:51:54.082Z,8.41
2024-02-22T21:54:23.473Z,8.43
2024-02-22T21:56:54.103Z,8.44
2024-02-22T21:59:23.459Z,8.44
2024-02-22T22:04:42.186Z,8.43
2024-02-22T22:07:12.244Z,8.43
2024-02-22T22:09:43.135Z,8.41
2024-02-22T22:12:12.553Z,8.41
2024-02-22T22:14:43.189Z,8.41
2024-02-22T22:17:12.866Z,8.43
2024-02-22T22:19:43.844Z,8.44
2024-02-22T22:22:13.908Z,8.44
2024-02-22T22:24:44.558Z,8.44
2024-02-22T22:27:14.367Z,8.43
2024-02-22T22:29:44.902Z,8.43
2024-02-22T22:32:14.307Z,8.43
2024-02-22T22:34:45.162Z,8.41
2024-02-22T22:37:16.899Z,8.39
2024-02-22T22:39:47.929Z,8.37
2024-02-22T22:42:17.441Z,8.36
2024-02-22T22:44:50.141Z,8.35
2024-02-22T22:47:19.563Z,8.36
2024-02-22T22:49:50.950Z,8.36
2024-02-22T22:52:20.687Z,8.38
2024-02-22T22:54:51.468Z,8.39
2024-02-22T22:57:21.025Z,8.41
2024-02-22T22:59:53.335Z,8.43
2024-02-22T23:02:22.760Z,8.44
2024-02-22T23:04:54.049Z,8.45
2024-02-22T23:07:23.443Z,8.46
2024-02-22T23:09:54.512Z,8.47
2024-02-22T23:12:24.068Z,8.48
2024-02-22T23:14:56.458Z,8.49
2024-02-22T23:17:26.215Z,8.49
2024-02-22T23:19:57.121Z,8.49
2024-02-22T23:22:30.624Z,8.48
2024-02-22T23:25:01.289Z,8.48
2024-02-22T23:27:30.540Z,8.47
2024-02-22T23:30:01.988Z,8.47
2024-02-22T23:32:33.390Z,8.48
2024-02-22T23:35:05.110Z,8.48
2024-02-22T23:37:34.503Z,8.49
2024-02-22T23:40:05.843Z,8.48
2024-02-22T23:42:35.230Z,8.47
2024-02-22T23:45:06.790Z,8.45
2024-02-22T23:47:36.279Z,8.44
2024-02-22T23:50:08.000Z,8.42
2024-02-22T23:52:37.364Z,8.39
2024-02-22T23:55:09.119Z,8.39
2024-02-22T23:57:38.994Z,8.38
